Time;durP1;ratioP1;P1;durP2;ratioP2;P2;SDS_P1;SDS_P2;PMS_P1;PMS_P2;Temp;Humidity;BMP_temperature;BMP_pressure;BME280_temperature;BME280_humidity;BME280_pressure;Samples;Min_cycle;Max_cycle;Signal;HPM_P1;HPM_P2
2023/07/14 00:01:25;;;;;;;1999.90;999.90;;;16.30;99.90;;;;;;4957719;28;20504;-69
2023/07/14 00:03:51;;;;;;;1999.90;999.90;;;16.30;99.90;;;;;;4958797;28;20050;-74
2023/07/14 00:06:18;;;;;;;1999.90;999.90;;;16.30;99.90;;;;;;4956967;29;20031;-70
2023/07/14 00:08:45;;;;;;;1999.90;999.90;;;16.20;99.90;;;;;;4958353;28;20019;-70
2023/07/14 00:11:16;;;;;;;1999.90;999.90;;;16.30;99.90;;;;;;4958638;28;20505;-69
2023/07/14 00:13:42;;;;;;;1999.90;999.90;;;16.20;99.90;;;;;;4957910;29;20016;-70
2023/07/14 00:16:21;;;;;;;1999.90;999.90;;;16.30;99.90;;;;;;4940950;29;20035;-74
2023/07/14 00:18:47;;;;;;;1999.90;999.90;;;16.30;99.90;;;;;;4957948;29;20030;-70
2023/07/14 00:21:24;;;;;;;1999.90;999.90;;;16.30;99.90;;;;;;4957343;29;20482;-70
2023/07/14 00:23:56;;;;;;;1999.90;999.90;;;16.30;99.90;;;;;;4958213;29;20110;-70
2023/07/14 00:26:21;;;;;;;1999.90;999.90;;;16.30;99.90;;;;;;4957834;29;20062;-70
2023/07/14 00:28:50;;;;;;;1999.90;999.90;;;16.40;99.90;;;;;;4957987;29;20066;-74
2023/07/14 00:31:20;;;;;;;1999.90;999.90;;;16.40;99.90;;;;;;4957923;29;20163;-74
2023/07/14 00:33:49;;;;;;;1999.90;999.90;;;16.40;99.90;;;;;;4956574;29;20031;-69
2023/07/14 00:36:17;;;;;;;1999.90;999.90;;;16.40;99.90;;;;;;4958163;28;20398;-69
2023/07/14 00:38:43;;;;;;;1999.90;999.90;;;16.40;99.90;;;;;;4956098;29;20031;-69
2023/07/14 00:41:18;;;;;;;1999.90;999.90;;;16.40;99.90;;;;;;4956929;28;20111;-69
2023/07/14 00:43:44;;;;;;;1999.90;999.90;;;16.40;99.90;;;;;;4955811;28;20035;-74
2023/07/14 00:46:36;;;;;;;1999.90;999.90;;;16.30;99.90;;;;;;4956346;29;20193;-69
2023/07/14 00:49:06;;;;;;;1999.90;999.90;;;16.30;99.90;;;;;;4957510;28;20023;-70
2023/07/14 00:51:35;;;;;;;1999.90;999.90;;;16.30;99.90;;;;;;4957934;28;20027;-70
2023/07/14 00:54:01;;;;;;;1999.90;999.90;;;16.20;99.90;;;;;;4957703;28;20441;-73
2023/07/14 00:56:45;;;;;;;1999.90;999.90;;;16.20;99.90;;;;;;4957952;28;20106;-70
2023/07/14 00:59:16;;;;;;;1999.90;999.90;;;16.10;99.90;;;;;;4957462;28;20406;-69
2023/07/14 01:02:10;;;;;;;1999.90;999.90;;;16.10;99.90;;;;;;4955138;29;20524;-70
2023/07/14 01:04:38;;;;;;;1999.90;999.90;;;16.10;99.90;;;;;;4957467;28;20113;-70
2023/07/14 01:07:04;;;;;;;1999.90;999.90;;;16.10;99.90;;;;;;4957297;28;20144;-70
2023/07/14 01:09:31;;;;;;;1999.90;999.90;;;16.00;99.90;;;;;;4954258;29;20083;-73
2023/07/14 01:11:58;;;;;;;1999.90;999.90;;;16.00;99.90;;;;;;4956913;29;20019;-69
2023/07/14 01:14:31;;;;;;;1999.90;999.90;;;16.10;99.90;;;;;;4957123;29;20035;-69
2023/07/14 01:16:57;;;;;;;;;;;16.10;99.90;;;;;;4957362;29;20024;-69
2023/07/14 01:19:41;;;;;;;1999.90;999.90;;;16.20;99.90;;;;;;4957378;29;19906;-69
2023/07/14 01:22:27;;;;;;;1999.90;999.90;;;16.20;99.90;;;;;;4957630;29;20035;-74
2023/07/14 01:24:55;;;;;;;1999.90;999.90;;;16.20;99.90;;;;;;4917317;29;20047;-70
2023/07/14 01:27:24;;;;;;;1999.90;999.90;;;16.20;99.90;;;;;;4956918;29;20470;-70
2023/07/14 01:29:53;;;;;;;1999.90;999.90;;;16.10;99.90;;;;;;4955569;29;20024;-69
2023/07/14 01:32:23;;;;;;;1999.90;999.90;;;16.10;99.90;;;;;;4957440;28;20023;-69
2023/07/14 01:34:49;;;;;;;1999.90;999.90;;;16.10;99.90;;;;;;4958586;28;20490;-73
2023/07/14 01:37:19;;;;;;;1999.90;999.90;;;16.10;99.90;;;;;;4975976;28;20113;-73
2023/07/14 01:39:45;;;;;;;1999.90;999.90;;;16.10;99.90;;;;;;4976048;28;20070;-70
2023/07/14 01:42:12;;;;;;;1999.90;999.90;;;16.10;99.90;;;;;;4976063;28;20086;-69
2023/07/14 01:44:38;;;;;;;1999.90;999.90;;;16.00;99.90;;;;;;4975859;28;20069;-70
2023/07/14 01:47:05;;;;;;;1999.90;999.90;;;16.00;99.90;;;;;;4958366;28;20031;-69
2023/07/14 01:49:38;;;;;;;1999.90;999.90;;;15.90;99.90;;;;;;4958235;28;20126;-70
2023/07/14 01:52:07;;;;;;;1999.90;999.90;;;15.90;99.90;;;;;;4975975;28;20035;-69
2023/07/14 01:54:39;;;;;;;1999.90;999.90;;;15.90;99.90;;;;;;4975854;28;20051;-69
2023/07/14 01:57:11;;;;;;;1999.90;999.90;;;15.90;99.90;;;;;;4975771;28;20033;-73
2023/07/14 01:59:40;;;;;;;1999.90;999.90;;;16.00;99.90;;;;;;4976240;28;20031;-70
2023/07/14 02:02:12;;;;;;;1999.90;999.90;;;16.00;99.90;;;;;;4975647;28;20674;-73
2023/07/14 02:04:39;;;;;;;1999.90;999.90;;;16.00;99.90;;;;;;4975214;28;20014;-69
2023/07/14 02:07:05;;;;;;;1999.90;999.90;;;15.90;99.90;;;;;;4975995;28;20125;-69
2023/07/14 02:09:32;;;;;;;1999.90;999.90;;;15.90;99.90;;;;;;4968909;28;20050;-69
2023/07/14 02:12:02;;;;;;;1999.90;999.90;;;15.90;99.90;;;;;;4956464;29;20034;-69
2023/07/14 02:14:42;;;;;;;1999.90;999.90;;;15.90;99.90;;;;;;4956549;29;20078;-74
2023/07/14 02:17:18;;;;;;;1999.90;999.90;;;15.90;99.90;;;;;;4956308;29;20501;-70
2023/07/14 02:19:44;;;;;;;1999.90;999.90;;;15.90;99.90;;;;;;4956554;29;20047;-69
2023/07/14 02:22:10;;;;;;;1999.90;999.90;;;15.80;99.90;;;;;;4955849;29;20115;-70
2023/07/14 02:24:36;;;;;;;1999.90;999.90;;;15.80;99.90;;;;;;4956137;29;20019;-70
2023/07/14 02:27:03;;;;;;;1999.90;999.90;;;15.80;99.90;;;;;;4955961;29;20038;-73
2023/07/14 02:29:30;;;;;;;1999.90;999.90;;;15.70;99.90;;;;;;4955973;29;20430;-73
2023/07/14 02:32:18;;;;;;;1999.90;999.90;;;15.70;99.90;;;;;;4954713;29;20114;-69
2023/07/14 02:35:10;;;;;;;1999.90;999.90;;;15.70;99.90;;;;;;4935811;29;20111;-69
2023/07/14 02:41:20;;;;;;;1999.90;999.90;;;15.60;99.90;;;;;;4928034;29;20028;-73
2023/07/14 02:43:52;;;;;;;1999.90;999.90;;;15.50;99.90;;;;;;4859355;29;20412;-71
2023/07/14 02:46:35;;;;;;;1999.90;999.90;;;15.50;99.90;;;;;;4925872;29;20368;-73
2023/07/14 02:49:00;;;;;;;1999.90;999.90;;;15.50;99.90;;;;;;4936463;29;20110;-70
2023/07/14 02:51:26;;;;;;;1999.90;999.90;;;15.50;99.90;;;;;;4936315;29;20051;-70
2023/07/14 02:53:52;;;;;;;1999.90;999.90;;;15.50;99.90;;;;;;4936044;29;20582;-70
2023/07/14 02:56:19;;;;;;;1999.90;999.90;;;15.40;99.90;;;;;;4936431;29;20067;-69
2023/07/14 02:58:48;;;;;;;1999.90;999.90;;;15.50;99.90;;;;;;4935965;29;20031;-70
2023/07/14 03:01:14;;;;;;;1999.90;999.90;;;15.40;99.90;;;;;;4936368;29;20066;-69
2023/07/14 03:03:40;;;;;;;1999.90;999.90;;;15.40;99.90;;;;;;4935470;29;20110;-70
2023/07/14 03:06:05;;;;;;;1999.90;999.90;;;15.50;99.90;;;;;;4947098;28;20098;-73
2023/07/14 03:08:31;;;;;;;1999.90;999.90;;;15.40;99.90;;;;;;4954911;29;20102;-69
2023/07/14 03:10:59;;;;;;;1999.90;999.90;;;15.40;99.90;;;;;;4955101;29;20024;-69
2023/07/14 03:13:25;;;;;;;1999.90;999.90;;;15.50;99.90;;;;;;4937936;29;20024;-70
2023/07/14 03:15:51;;;;;;;1999.90;999.90;;;15.50;99.90;;;;;;4955082;29;20042;-69
2023/07/14 03:18:16;;;;;;;1999.90;999.90;;;15.50;99.90;;;;;;4955305;29;20032;-69
2023/07/14 03:20:43;;;;;;;1999.90;999.90;;;15.50;99.90;;;;;;4954332;29;20074;-73
2023/07/14 03:23:08;;;;;;;1999.90;999.90;;;15.50;99.90;;;;;;4954915;29;20074;-69
2023/07/14 03:25:35;;;;;;;1999.90;999.90;;;15.40;99.90;;;;;;4954942;29;20102;-70
2023/07/14 03:28:02;;;;;;;1999.90;999.90;;;15.40;99.90;;;;;;4954928;29;20395;-69
2023/07/14 03:30:32;;;;;;;1999.90;999.90;;;15.50;99.90;;;;;;4954171;29;20047;-73
2023/07/14 03:32:57;;;;;;;1999.90;999.90;;;15.40;99.90;;;;;;4954923;29;20019;-73
2023/07/14 03:35:23;;;;;;;1999.90;999.90;;;15.40;99.90;;;;;;4954723;28;20033;-69
2023/07/14 03:37:49;;;;;;;1999.90;999.90;;;15.40;99.90;;;;;;4949223;29;20047;-69
2023/07/14 03:40:14;;;;;;;1999.90;999.90;;;15.40;99.90;;;;;;4955240;29;20036;-74
2023/07/14 03:42:41;;;;;;;1999.90;999.90;;;15.40;99.90;;;;;;4955140;29;20038;-73
2023/07/14 03:45:07;;;;;;;1999.90;999.90;;;15.40;99.90;;;;;;4955226;29;20031;-69
2023/07/14 03:47:33;;;;;;;1999.90;999.90;;;15.40;99.90;;;;;;4954768;29;20047;-72
2023/07/14 03:49:59;;;;;;;1999.90;999.90;;;15.40;99.90;;;;;;4954865;29;20058;-70
2023/07/14 03:52:25;;;;;;;1999.90;999.90;;;15.40;99.90;;;;;;4954902;29;20027;-69
2023/07/14 03:54:51;;;;;;;1999.90;999.90;;;15.40;99.90;;;;;;4954845;29;20035;-69
2023/07/14 03:57:16;;;;;;;1999.90;999.90;;;15.50;99.90;;;;;;4954702;29;20066;-74
2023/07/14 03:59:42;;;;;;;1999.90;999.90;;;15.50;99.90;;;;;;4954692;29;20024;-73
2023/07/14 04:02:07;;;;;;;1999.90;999.90;;;15.50;99.90;;;;;;4954619;29;20033;-69
2023/07/14 04:04:33;;;;;;;1999.90;999.90;;;15.50;99.90;;;;;;4953587;29;20027;-69
2023/07/14 04:06:59;;;;;;;1999.90;999.90;;;15.60;99.90;;;;;;4954865;29;20098;-69
2023/07/14 04:09:24;;;;;;;1999.90;999.90;;;15.60;99.90;;;;;;4937294;29;20050;-70
2023/07/14 04:11:50;;;;;;;1999.90;999.90;;;15.60;99.90;;;;;;4954924;29;20038;-69
2023/07/14 04:14:16;;;;;;;1999.90;999.90;;;15.60;99.90;;;;;;4954184;29;20070;-70
2023/07/14 04:16:41;;;;;;;1999.90;999.90;;;15.70;99.90;;;;;;4954745;29;20031;-69
2023/07/14 04:19:07;;;;;;;1999.90;999.90;;;15.70;99.90;;;;;;4956891;28;20443;-69
2023/07/14 04:21:33;;;;;;;1999.90;999.90;;;15.70;99.90;;;;;;4958313;29;20023;-69
2023/07/14 04:23:59;;;;;;;1999.90;999.90;;;15.80;99.90;;;;;;4958517;29;20478;-73
2023/07/14 04:26:26;;;;;;;1999.90;999.90;;;15.80;99.90;;;;;;4957882;29;20036;-70
2023/07/14 04:28:52;;;;;;;1999.90;999.90;;;15.80;99.90;;;;;;4957933;29;20398;-70
2023/07/14 04:31:17;;;;;;;1999.90;999.90;;;15.80;99.90;;;;;;4958093;29;20031;-70
2023/07/14 04:33:47;;;;;;;1999.90;999.90;;;15.80;99.90;;;;;;4957694;29;20437;-69
2023/07/14 04:36:14;;;;;;;1999.90;999.90;;;15.80;99.90;;;;;;4957935;28;20027;-73
2023/07/14 04:39:03;;;;;;;1999.90;999.90;;;15.90;99.90;;;;;;4956544;29;20031;-69
2023/07/14 04:41:30;;;;;;;1999.90;999.90;;;15.90;99.90;;;;;;4958326;28;20023;-69
2023/07/14 04:43:56;;;;;;;1999.90;999.90;;;15.90;99.90;;;;;;4957934;28;20027;-69
2023/07/14 04:46:22;;;;;;;1999.90;999.90;;;15.90;99.90;;;;;;4957699;28;20042;-69
2023/07/14 04:48:48;;;;;;;1999.90;999.90;;;15.90;99.90;;;;;;4956450;29;20027;-73
2023/07/14 04:51:14;;;;;;;1999.90;999.90;;;16.00;99.90;;;;;;4957668;28;20402;-70
2023/07/14 04:53:39;;;;;;;1999.90;999.90;;;16.00;99.90;;;;;;4957588;28;20047;-69
2023/07/14 04:56:05;;;;;;;1999.90;999.90;;;16.00;99.90;;;;;;4955730;29;20039;-70
2023/07/14 04:58:31;;;;;;;1999.90;999.90;;;16.00;99.90;;;;;;4957291;28;20035;-70
2023/07/14 05:00:56;;;;;;;1999.90;999.90;;;16.00;99.90;;;;;;4957357;28;20019;-70
2023/07/14 05:03:23;;;;;;;1999.90;999.90;;;16.10;99.90;;;;;;4957517;28;20035;-73
2023/07/14 05:05:49;;;;;;;1999.90;999.90;;;16.10;99.90;;;;;;4956620;28;20398;-70
2023/07/14 05:08:14;;;;;;;1999.90;999.90;;;16.20;99.90;;;;;;4957828;28;20046;-69
2023/07/14 05:10:40;;;;;;;1999.90;999.90;;;16.20;99.90;;;;;;4944787;29;20449;-69
2023/07/14 05:13:06;;;;;;;1999.90;999.90;;;16.30;99.90;;;;;;4957424;29;20085;-69
2023/07/14 05:15:32;;;;;;;1999.90;999.90;;;16.40;99.90;;;;;;4956825;29;20082;-73
2023/07/14 05:17:57;;;;;;;1999.90;999.90;;;16.40;99.90;;;;;;4939946;29;20031;-73
2023/07/14 05:20:23;;;;;;;1999.90;999.90;;;16.50;99.90;;;;;;4957100;29;20161;-69
2023/07/14 05:22:53;;;;;;;1999.90;999.90;;;16.50;99.90;;;;;;4957320;29;20031;-69
2023/07/14 05:25:19;;;;;;;1999.90;999.90;;;16.50;99.90;;;;;;4956804;29;20487;-70
2023/07/14 05:27:45;;;;;;;1999.90;999.90;;;16.60;99.90;;;;;;4956991;29;20039;-73
2023/07/14 05:30:17;;;;;;;1999.90;999.90;;;16.50;99.90;;;;;;4956671;28;20027;-69
2023/07/14 05:32:43;;;;;;;1999.90;999.90;;;16.60;99.90;;;;;;4961006;28;20026;-69
2023/07/14 05:35:10;;;;;;;1999.90;999.90;;;16.50;99.90;;;;;;4959027;28;20170;-69
2023/07/14 05:37:35;;;;;;;1999.90;999.90;;;16.50;99.90;;;;;;4975781;28;20034;-69
2023/07/14 05:40:04;;;;;;;1999.90;999.90;;;16.50;99.90;;;;;;4976051;28;20019;-69
2023/07/14 05:42:30;;;;;;;1999.90;999.90;;;16.50;99.90;;;;;;4976466;28;20023;-73
2023/07/14 05:44:55;;;;;;;1999.90;999.90;;;16.60;99.90;;;;;;4958567;28;20122;-69
2023/07/14 05:47:23;;;;;;;1999.90;999.90;;;16.60;99.90;;;;;;4976264;28;20058;-69
2023/07/14 05:49:49;;;;;;;1999.90;999.90;;;16.70;99.90;;;;;;4975649;28;20018;-69
2023/07/14 05:52:15;;;;;;;1999.90;999.90;;;16.80;99.90;;;;;;4975835;28;20521;-69
2023/07/14 05:54:41;;;;;;;1999.90;999.90;;;17.00;99.90;;;;;;4976311;28;20039;-69
2023/07/14 05:57:06;;;;;;;1999.90;999.90;;;17.00;99.90;;;;;;4975488;28;20031;-73
2023/07/14 05:59:32;;;;;;;1999.90;999.90;;;17.20;99.90;;;;;;4970933;28;20031;-69
2023/07/14 06:01:58;;;;;;;1999.90;999.90;;;17.20;99.90;;;;;;4954970;29;20105;-69
2023/07/14 06:04:23;;;;;;;1999.90;999.90;;;17.30;99.90;;;;;;4956240;29;20061;-69
2023/07/14 06:06:49;;;;;;;1999.90;999.90;;;17.40;99.90;;;;;;4955554;29;20030;-73
2023/07/14 06:09:16;;;;;;;1999.90;999.90;;;17.50;99.90;;;;;;4938755;29;20027;-69
2023/07/14 06:11:42;;;;;;;1999.90;999.90;;;17.60;99.90;;;;;;4956284;29;20023;-70
2023/07/14 06:14:08;;;;;;;1999.90;999.90;;;17.70;99.90;;;;;;4955934;29;20038;-69
2023/07/14 06:16:34;;;;;;;1999.90;999.90;;;17.90;99.90;;;;;;4955746;29;20576;-69
2023/07/14 06:19:00;;;;;;;1999.90;999.90;;;18.10;99.90;;;;;;4955912;29;20083;-69
2023/07/14 06:21:25;;;;;;;1999.90;999.90;;;18.30;99.90;;;;;;4955155;29;20058;-69
2023/07/14 06:23:51;;;;;;;1999.90;999.90;;;18.40;99.90;;;;;;4956231;29;20027;-73
2023/07/14 06:26:17;;;;;;;1999.90;999.90;;;18.70;99.90;;;;;;4955843;29;20031;-69
2023/07/14 06:28:43;;;;;;;1999.90;999.90;;;18.80;99.90;;;;;;4955638;29;20114;-69
2023/07/14 06:31:11;;;;;;;1999.90;999.90;;;19.10;99.90;;;;;;4955877;29;20031;-68
2023/07/14 06:33:37;;;;;;;1999.90;999.90;;;19.10;99.90;;;;;;4955744;29;20434;-74
2023/07/14 06:36:03;;;;;;;1999.90;999.90;;;19.30;99.90;;;;;;4956117;28;20074;-68
2023/07/14 06:38:30;;;;;;;1999.90;999.90;;;19.30;99.90;;;;;;4955783;28;20055;-68
2023/07/14 06:41:00;;;;;;;1999.90;999.90;;;19.40;99.90;;;;;;4955231;28;20019;-69
2023/07/14 06:43:29;;;;;;;1999.90;999.90;;;19.40;99.90;;;;;;4955519;28;20023;-68
2023/07/14 06:45:54;;;;;;;1999.90;999.90;;;19.40;99.90;;;;;;4955559;28;20023;-73
2023/07/14 06:48:20;;;;;;;1999.90;999.90;;;19.50;99.90;;;;;;4955851;28;20046;-74
2023/07/14 06:50:46;;;;;;;1999.90;999.90;;;19.70;99.90;;;;;;4955359;28;20147;-68
2023/07/14 06:53:12;;;;;;;1999.90;999.90;;;19.70;99.90;;;;;;4955256;28;20071;-68
2023/07/14 06:55:38;;;;;;;1999.90;999.90;;;19.70;99.90;;;;;;4955573;28;20035;-68
2023/07/14 06:58:05;;;;;;;1999.90;999.90;;;19.80;99.90;;;;;;4955143;28;20027;-68
2023/07/14 07:00:31;;;;;;;1999.90;999.90;;;19.90;99.90;;;;;;4938080;29;20035;-74
2023/07/14 07:02:58;;;;;;;1999.90;999.90;;;20.10;99.90;;;;;;4955262;29;20038;-69
2023/07/14 07:05:23;;;;;;;1999.90;999.90;;;20.40;99.90;;;;;;4955292;29;20027;-68
2023/07/14 07:07:49;;;;;;;1999.90;999.90;;;20.50;99.90;;;;;;4954228;29;20027;-70
2023/07/14 07:10:15;;;;;;;1999.90;999.90;;;20.60;99.90;;;;;;4955256;29;20497;-69
2023/07/14 07:12:41;;;;;;;1999.90;999.90;;;20.60;99.90;;;;;;4955056;29;20039;-75
2023/07/14 07:15:08;;;;;;;1999.90;999.90;;;20.70;99.90;;;;;;4954966;29;20031;-74
2023/07/14 07:17:34;;;;;;;1999.90;999.90;;;20.90;99.90;;;;;;4954896;29;20482;-69
2023/07/14 07:19:59;;;;;;;1999.90;999.90;;;21.10;99.90;;;;;;4938010;29;20049;-69
2023/07/14 07:22:25;;;;;;;1999.90;999.90;;;21.30;99.90;;;;;;4955231;29;20070;-70
2023/07/14 07:24:51;;;;;;;1999.90;999.90;;;21.20;99.90;;;;;;4955493;29;20406;-73
2023/07/14 07:27:17;;;;;;;1999.90;999.90;;;21.40;99.90;;;;;;4937705;29;20035;-74
2023/07/14 07:29:42;;;;;;;1999.90;999.90;;;21.50;99.90;;;;;;4955020;29;20027;-69
2023/07/14 07:32:09;;;;;;;1999.90;999.90;;;21.70;99.90;;;;;;4954826;29;20114;-70
2023/07/14 07:34:34;;;;;;;1999.90;999.90;;;21.90;99.90;;;;;;4954848;29;20023;-67
2023/07/14 07:37:00;;;;;;;1999.90;999.90;;;22.00;99.90;;;;;;4953804;29;20043;-70
2023/07/14 07:39:26;;;;;;;1999.90;999.90;;;22.20;99.90;;;;;;4953816;29;20418;-74
2023/07/14 07:41:52;;;;;;;1999.90;999.90;;;22.80;99.90;;;;;;4955528;28;20028;-70
2023/07/14 07:44:17;;;;;;;1999.90;999.90;;;24.50;99.90;;;;;;4955080;28;20024;-71
2023/07/14 07:46:43;;;;;;;1999.90;999.90;;;24.80;99.90;;;;;;4954952;28;20839;-70
2023/07/14 07:49:08;;;;;;;1999.90;999.90;;;25.40;99.90;;;;;;4955034;28;20123;-69
2023/07/14 07:51:34;;;;;;;1999.90;999.90;;;26.60;99.90;;;;;;4954877;28;20154;-75
2023/07/14 07:54:00;;;;;;;1999.90;999.90;;;27.10;99.90;;;;;;4955908;28;20417;-74
2023/07/14 07:56:25;;;;;;;1999.90;999.90;;;27.10;99.90;;;;;;4958421;28;20031;-71
2023/07/14 07:58:51;;;;;;;1999.90;999.90;;;27.70;99.90;;;;;;4959075;28;20023;-71
2023/07/14 08:01:20;;;;;;;1999.90;999.90;;;28.00;99.90;;;;;;4958587;28;20035;-71
2023/07/14 08:03:46;;;;;;;1999.90;999.90;;;27.60;99.90;;;;;;4958555;28;20019;-70
2023/07/14 08:06:12;;;;;;;1999.90;999.90;;;28.20;99.90;;;;;;4959116;28;20118;-73
2023/07/14 08:08:38;;;;;;;1999.90;999.90;;;28.30;99.90;;;;;;4957321;28;20109;-70
2023/07/14 08:11:07;;;;;;;1999.90;999.90;;;28.90;99.90;;;;;;4958425;29;20558;-69
2023/07/14 08:13:33;;;;;;;1999.90;999.90;;;28.30;99.90;;;;;;4958106;29;20470;-71
2023/07/14 08:15:58;;;;;;;1999.90;999.90;;;28.60;99.90;;;;;;4958046;29;20081;-70
2023/07/14 08:18:25;;;;;;;1999.90;999.90;;;29.00;99.90;;;;;;4958247;29;20034;-75
2023/07/14 08:20:51;;;;;;;1999.90;999.90;;;28.90;99.70;;;;;;4958111;29;20043;-74
2023/07/14 08:23:19;;;;;;;1999.90;999.90;;;30.30;99.50;;;;;;4958201;29;20027;-71
2023/07/14 08:25:54;;;;;;;1999.90;999.90;;;30.90;98.40;;;;;;4958214;28;20058;-72
2023/07/14 08:28:20;;;;;;;1999.90;999.90;;;31.50;96.70;;;;;;4940843;29;20390;-71
2023/07/14 08:30:51;;;;;;;1999.90;999.90;;;31.30;96.00;;;;;;4958332;29;20032;-75
2023/07/14 08:33:21;;;;;;;1999.90;999.90;;;31.70;96.20;;;;;;4965926;28;20106;-75
2023/07/14 08:35:54;;;;;;;1999.90;999.90;;;31.00;95.80;;;;;;4977243;28;20022;-71
2023/07/14 08:38:21;;;;;;;1999.90;999.90;;;31.20;96.10;;;;;;4959564;28;20431;-71
2023/07/14 08:41:03;;;;;;;1999.90;999.90;;;31.00;95.70;;;;;;4977232;28;20043;-71
2023/07/14 08:43:46;;;;;;;1999.90;999.90;;;31.30;95.50;;;;;;4977367;28;20378;-71
2023/07/14 08:46:18;;;;;;;1999.90;999.90;;;31.30;94.60;;;;;;4976817;28;20034;-75
2023/07/14 08:49:03;;;;;;;1999.90;999.90;;;32.30;94.80;;;;;;4959521;28;20019;-71
2023/07/14 08:51:37;;;;;;;1999.90;999.90;;;31.70;95.10;;;;;;4977176;28;20517;-72
2023/07/14 08:54:10;;;;;;;1999.90;999.90;;;31.30;94.70;;;;;;4976709;28;20421;-70
2023/07/14 08:56:37;;;;;;;1999.90;999.90;;;30.90;95.00;;;;;;4977118;28;20023;-71
2023/07/14 08:59:05;;;;;;;1999.90;999.90;;;31.80;95.00;;;;;;4976815;28;20069;-72
2023/07/14 09:01:54;;;;;;;1999.90;999.90;;;31.40;94.70;;;;;;4959408;28;20077;-71
2023/07/14 09:04:34;;;;;;;1999.90;999.90;;;31.70;95.20;;;;;;4976354;28;20023;-71
2023/07/14 09:07:01;;;;;;;1999.90;999.90;;;31.90;94.40;;;;;;4962021;28;20094;-71
2023/07/14 09:09:33;;;;;;;1999.90;999.90;;;32.80;94.10;;;;;;4956403;29;20028;-72
2023/07/14 09:12:03;;;;;;;1999.90;999.90;;;32.50;94.20;;;;;;4957271;29;20090;-71
2023/07/14 09:14:37;;;;;;;1999.90;999.90;;;32.60;94.10;;;;;;4957040;29;20390;-71
2023/07/14 09:17:11;;;;;;;1999.90;999.90;;;32.90;94.10;;;;;;4957030;29;20035;-71
2023/07/14 09:20:00;;;;;;;1999.90;999.90;;;32.90;93.00;;;;;;4939302;29;20032;-71
2023/07/14 09:22:50;;;;;;;1999.90;999.90;;;32.40;93.60;;;;;;4957141;29;20082;-75
2023/07/14 09:25:29;;;;;;;1999.90;999.90;;;32.50;93.60;;;;;;4957072;29;20592;-71
2023/07/14 09:27:55;;;;;;;1999.90;999.90;;;32.80;93.50;;;;;;4957058;29;20028;-71
2023/07/14 09:30:26;;;;;;;1999.90;999.90;;;32.10;94.10;;;;;;4957115;29;20039;-71
2023/07/14 09:33:03;;;;;;;1999.90;999.90;;;32.00;94.80;;;;;;4939426;29;20402;-71
2023/07/14 09:35:29;;;;;;;1999.90;999.90;;;32.50;94.50;;;;;;4956901;29;20026;-75
2023/07/14 09:38:17;;;;;;;1999.90;999.90;;;33.10;93.90;;;;;;4956633;29;20031;-71
2023/07/14 09:40:46;;;;;;;1999.90;999.90;;;33.20;93.70;;;;;;4939447;29;20019;-71
2023/07/14 09:43:12;;;;;;;1999.90;999.90;;;33.20;93.50;;;;;;4956941;29;20035;-71
2023/07/14 09:45:40;;;;;;;1999.90;999.90;;;33.70;93.60;;;;;;4956877;29;20026;-71
2023/07/14 09:48:11;;;;;;;1999.90;999.90;;;33.20;93.40;;;;;;4956680;29;20517;-72
2023/07/14 09:50:49;;;;;;;1999.90;999.90;;;32.80;93.20;;;;;;4956480;29;20019;-75
2023/07/14 09:53:14;;;;;;;1999.90;999.90;;;32.80;93.30;;;;;;4939209;29;20139;-71
2023/07/14 09:56:03;;;;;;;1999.90;999.90;;;32.80;93.50;;;;;;4956570;29;20059;-73
2023/07/14 09:58:31;;;;;;;1999.90;999.90;;;33.40;93.10;;;;;;4956434;29;20029;-70
2023/07/14 10:01:02;;;;;;;1999.90;999.90;;;32.60;93.20;;;;;;4956460;29;20030;-73
2023/07/14 10:03:48;;;;;;;1999.90;999.90;;;32.00;93.60;;;;;;4956609;29;20027;-75
2023/07/14 10:06:32;;;;;;;1999.90;999.90;;;32.60;94.00;;;;;;4939142;29;20031;-71
2023/07/14 10:09:11;;;;;;;1999.90;999.90;;;33.40;93.00;;;;;;4955501;29;20058;-73
2023/07/14 10:11:48;;;;;;;1999.90;999.90;;;32.00;93.70;;;;;;4956366;29;20066;-70
2023/07/14 10:14:45;;;;;;;1999.90;999.90;;;31.60;94.50;;;;;;4956227;29;20377;-71
2023/07/14 10:17:26;;;;;;;1999.90;999.90;;;31.80;94.60;;;;;;4956244;28;20402;-70
2023/07/14 10:19:52;;;;;;;1999.90;999.90;;;32.50;94.60;;;;;;4938598;29;20027;-70
2023/07/14 10:22:22;;;;;;;1999.90;999.90;;;33.00;93.90;;;;;;4956324;29;20096;-70
2023/07/14 10:25:01;;;;;;;1999.90;999.90;;;32.70;93.60;;;;;;4956462;29;20019;-70
2023/07/14 10:27:31;;;;;;;1999.90;999.90;;;32.70;94.40;;;;;;4958248;29;20086;-75
2023/07/14 10:30:06;;;;;;;1999.90;999.90;;;32.50;94.00;;;;;;4956244;29;20023;-74
2023/07/14 10:32:44;;;;;;;1999.90;999.90;;;32.80;93.90;;;;;;4955886;29;20051;-70
2023/07/14 10:35:13;;;;;;;1999.90;999.90;;;33.00;93.80;;;;;;4956456;28;20023;-71
2023/07/14 10:37:44;;;;;;;1999.90;999.90;;;32.70;94.00;;;;;;4954460;29;20451;-71
2023/07/14 10:40:23;;;;;;;1999.90;999.90;;;32.80;94.30;;;;;;4955728;28;20031;-70
2023/07/14 10:43:21;;;;;;;1999.90;999.90;;;32.90;93.40;;;;;;4955920;28;20031;-71
2023/07/14 10:45:57;;;;;;;1999.90;999.90;;;33.30;93.30;;;;;;4954409;28;20389;-71
2023/07/14 10:48:38;;;;;;;1999.90;999.90;;;33.00;93.90;;;;;;4953325;28;20027;-70
2023/07/14 10:51:21;;;;;;;1999.90;999.90;;;32.80;93.50;;;;;;4955177;29;20121;-71
2023/07/14 10:53:55;;;;;;;1999.90;999.90;;;32.90;93.80;;;;;;4955482;28;20094;-70
2023/07/14 10:56:31;;;;;;;1999.90;999.90;;;32.40;94.00;;;;;;4955514;28;20038;-75
2023/07/14 10:59:13;;;;;;;1999.90;999.90;;;33.20;94.30;;;;;;4954105;29;20024;-70
2023/07/14 11:02:09;;;;;;;1999.90;999.90;;;33.00;94.70;;;;;;4955310;28;20019;-70
2023/07/14 11:04:42;;;;;;;1999.90;999.90;;;33.50;94.50;;;;;;4955319;28;20395;-71
2023/07/14 11:07:16;;;;;;;1999.90;999.90;;;32.70;94.20;;;;;;4955732;28;20034;-70
2023/07/14 11:09:41;;;;;;;1999.90;999.90;;;32.50;95.10;;;;;;4954451;28;20490;-75
2023/07/14 11:12:12;;;;;;;1999.90;999.90;;;32.30;95.40;;;;;;4954026;29;20039;-70
2023/07/14 11:14:54;;;;;;;1999.90;999.90;;;33.20;94.80;;;;;;4954738;28;20573;-69
2023/07/14 11:18:01;;;;;;;1999.90;999.90;;;33.00;94.20;;;;;;4955091;29;20129;-70
2023/07/14 11:20:34;;;;;;;1999.90;999.90;;;32.70;94.30;;;;;;4955127;29;20160;-75
2023/07/14 11:23:20;;;;;;;1999.90;999.90;;;32.70;94.30;;;;;;4937930;29;20028;-70
2023/07/14 11:26:09;;;;;;;1999.90;999.90;;;33.20;94.30;;;;;;4954862;29;20027;-74
2023/07/14 11:28:48;;;;;;;1999.90;999.90;;;32.20;94.40;;;;;;4954426;29;20047;-72
2023/07/14 11:31:31;;;;;;;1999.90;999.90;;;32.00;94.50;;;;;;4953841;29;20027;-73
2023/07/14 11:34:09;;;;;;;1999.90;999.90;;;32.20;94.20;;;;;;4956657;29;20034;-76
2023/07/14 11:36:50;;;;;;;1999.90;999.90;;;32.60;94.20;;;;;;4954907;28;20035;-71
2023/07/14 11:39:29;;;;;;;1999.90;999.90;;;33.70;93.70;;;;;;4954812;28;20023;-71
2023/07/14 11:41:55;;;;;;;1999.90;999.90;;;32.70;93.10;;;;;;4955056;28;20102;-70
2023/07/14 11:44:22;;;;;;;1999.90;999.90;;;33.10;93.10;;;;;;4955471;28;20127;-72
2023/07/14 11:46:51;;;;;;;1999.90;999.90;;;33.20;92.50;;;;;;4954768;28;20074;-76
2023/07/14 11:49:34;;;;;;;1999.90;999.90;;;32.80;92.60;;;;;;4954687;28;20023;-70
2023/07/14 11:52:11;;;;;;;1999.90;999.90;;;32.10;93.00;;;;;;4953535;29;20037;-72
2023/07/14 11:54:43;;;;;;;1999.90;999.90;;;31.50;93.00;;;;;;4953701;29;20043;-71
2023/07/14 11:57:17;;;;;;;1999.90;999.90;;;31.10;93.90;;;;;;4954940;28;20031;-70
2023/07/14 12:00:15;;;;;;;1999.90;999.90;;;31.00;93.70;;;;;;4953606;29;20031;-70
2023/07/14 12:02:40;;;;;;;1999.90;999.90;;;30.70;94.10;;;;;;4954767;28;20512;-73
2023/07/14 12:05:15;;;;;;;1999.90;999.90;;;31.20;93.90;;;;;;4955432;28;20023;-71
2023/07/14 12:08:05;;;;;;;1999.90;999.90;;;31.80;93.80;;;;;;4955332;28;20066;-73
2023/07/14 12:10:41;;;;;;;1999.90;999.90;;;31.70;93.70;;;;;;4953631;28;20027;-75
2023/07/14 12:13:19;;;;;;;1999.90;999.90;;;31.80;94.10;;;;;;4954905;29;20023;-72
2023/07/14 12:15:56;;;;;;;1999.90;999.90;;;31.80;94.40;;;;;;4954252;29;20034;-72
2023/07/14 12:18:22;;;;;;;1999.90;999.90;;;32.20;94.50;;;;;;4954283;29;20023;-72